createdAt,value
2018-01-14T00:01:37.111Z,33.77
2018-01-14T00:04:04.268Z,33.30
2018-01-14T00:06:30.583Z,27.37
2018-01-14T00:08:57.567Z,28.63
2018-01-14T00:11:23.814Z,27.93
2018-01-14T00:13:50.850Z,27.77
2018-01-14T00:16:17.121Z,25.50
2018-01-14T00:18:43.342Z,27.57
2018-01-14T00:21:10.520Z,27.87
2018-01-14T00:23:43.352Z,27.50
2018-01-14T00:26:09.559Z,24.00
2018-01-14T00:28:35.788Z,30.43
2018-01-14T00:31:02.916Z,28.83
2018-01-14T00:33:29.847Z,24.37
2018-01-14T00:35:56.819Z,30.43
2018-01-14T00:38:24.092Z,24.33
2018-01-14T00:40:50.306Z,29.40
2018-01-14T00:43:18.012Z,25.67
2018-01-14T00:45:45.230Z,30.70
2018-01-14T00:48:11.486Z,29.53
2018-01-14T01:00:22.758Z,28.13
2018-01-14T01:02:49.241Z,29.23
2018-01-14T01:05:15.451Z,24.50
2018-01-14T01:07:41.648Z,26.20
2018-01-14T01:10:07.840Z,23.23
2018-01-14T01:12:34.026Z,28.53
2018-01-14T01:15:00.959Z,29.43
2018-01-14T01:17:29.619Z,29.17
2018-01-14T01:19:55.842Z,22.93
2018-01-14T01:22:22.060Z,24.67
2018-01-14T01:24:49.211Z,24.60
2018-01-14T01:27:15.430Z,26.60
2018-01-14T01:29:41.843Z,27.40
2018-01-14T01:41:54.046Z,22.97
2018-01-14T01:44:20.206Z,25.73
2018-01-14T01:46:48.499Z,22.53
2018-01-14T01:49:15.764Z,20.70
2018-01-14T01:51:42.642Z,23.63
2018-01-14T01:54:08.846Z,26.80
2018-01-14T01:56:35.060Z,26.43
2018-01-14T01:59:02.119Z,23.30
2018-01-14T02:01:28.320Z,23.90
2018-01-14T02:03:55.486Z,27.03
2018-01-14T02:06:22.458Z,22.13
2018-01-14T02:08:48.687Z,24.50
2018-01-14T02:11:17.462Z,24.17
2018-01-14T02:13:43.696Z,22.73
2018-01-14T02:16:09.881Z,24.50
2018-01-14T02:18:36.195Z,24.00
2018-01-14T02:21:04.094Z,25.83
2018-01-14T02:23:30.275Z,25.07
2018-01-14T02:25:57.150Z,26.37
2018-01-14T02:28:23.363Z,26.50
2018-01-14T02:30:49.621Z,25.47
2018-01-14T02:43:01.608Z,25.63
2018-01-14T02:45:27.941Z,24.80
2018-01-14T02:47:54.189Z,28.10
2018-01-14T02:50:20.412Z,25.90
2018-01-14T02:52:46.626Z,31.05
2018-01-14T02:55:12.850Z,24.83
2018-01-14T02:57:39.877Z,27.95
2018-01-14T03:00:06.075Z,25.37
2018-01-14T03:02:32.737Z,26.15
2018-01-14T03:04:59.097Z,26.08
2018-01-14T03:07:26.143Z,25.48
2018-01-14T03:09:53.100Z,25.23
2018-01-14T03:12:20.153Z,28.53
2018-01-14T03:14:46.350Z,23.20
2018-01-14T03:17:13.298Z,26.37
2018-01-14T03:19:40.244Z,30.90
2018-01-14T03:22:06.514Z,27.05
2018-01-14T03:24:32.758Z,25.87
2018-01-14T03:26:59.023Z,25.10
2018-01-14T03:29:27.142Z,25.23
2018-01-14T03:31:53.390Z,26.20
2018-01-14T03:34:19.661Z,26.83
2018-01-14T03:36:45.875Z,27.25
2018-01-14T03:39:12.138Z,25.80
2018-01-14T03:41:39.090Z,27.83
2018-01-14T03:44:06.019Z,26.75
2018-01-14T03:46:32.961Z,31.17
2018-01-14T03:48:59.200Z,28.60
2018-01-14T03:51:27.758Z,30.80
2018-01-14T03:53:54.841Z,31.33
2018-01-14T03:56:21.803Z,28.80
2018-01-14T03:58:47.978Z,28.98
2018-01-14T04:01:15.200Z,31.70
2018-01-14T04:03:41.429Z,28.87
2018-01-14T04:06:07.661Z,30.88
2018-01-14T04:08:33.906Z,32.45
2018-01-14T04:11:00.536Z,36.80
2018-01-14T04:13:26.816Z,30.67
2018-01-14T04:15:53.767Z,34.97
2018-01-14T04:18:20.706Z,33.45
2018-01-14T04:20:48.521Z,35.05
2018-01-14T04:23:14.750Z,31.90
2018-01-14T04:25:40.966Z,31.05
2018-01-14T04:28:07.235Z,32.67
2018-01-14T04:30:33.438Z,27.83
2018-01-14T04:32:59.682Z,32.42
2018-01-14T04:35:25.883Z,28.48
2018-01-14T04:37:52.121Z,38.58
2018-01-14T04:40:18.333Z,32.97
2018-01-14T04:42:45.746Z,32.47
2018-01-14T04:45:12.662Z,37.22
2018-01-14T04:47:38.860Z,36.72
2018-01-14T04:50:05.074Z,33.63
2018-01-14T04:52:32.023Z,38.97
2018-01-14T04:54:58.217Z,37.30
2018-01-14T04:57:24.402Z,30.48
2018-01-14T04:59:50.624Z,35.53
2018-01-14T05:02:16.874Z,34.35
2018-01-14T05:04:43.079Z,33.58
2018-01-14T05:07:09.251Z,34.70
2018-01-14T05:09:35.605Z,37.20
2018-01-14T05:12:02.578Z,37.22
2018-01-14T05:14:29.749Z,34.77
2018-01-14T05:16:55.913Z,37.50
2018-01-14T05:19:22.191Z,36.75
2018-01-14T05:21:48.417Z,35.80
2018-01-14T05:24:14.973Z,38.97
2018-01-14T05:26:42.083Z,35.47
2018-01-14T05:29:09.009Z,37.28
2018-01-14T05:31:35.241Z,40.88
2018-01-14T05:34:01.487Z,36.08
2018-01-14T05:36:28.985Z,38.75
2018-01-14T05:38:55.981Z,40.40
2018-01-14T05:41:22.181Z,33.85
2018-01-14T05:43:48.603Z,39.20
2018-01-14T05:46:15.608Z,36.15
2018-01-14T05:48:42.884Z,40.12
2018-01-14T05:51:09.076Z,40.47
2018-01-14T05:53:35.321Z,37.65
2018-01-14T05:56:02.562Z,40.00
2018-01-14T05:58:29.542Z,39.70
2018-01-14T06:00:55.740Z,38.13
2018-01-14T06:03:22.670Z,37.33
2018-01-14T06:05:48.872Z,40.67
2018-01-14T06:08:15.839Z,39.10
2018-01-14T06:10:42.963Z,36.50
2018-01-14T06:13:09.200Z,37.05
2018-01-14T06:15:35.919Z,36.73
2018-01-14T06:18:02.152Z,36.17
2018-01-14T06:20:28.346Z,36.15
2018-01-14T06:22:56.215Z,39.45
2018-01-14T06:25:23.156Z,37.53
2018-01-14T06:27:50.596Z,35.15
2018-01-14T06:30:16.798Z,40.97
2018-01-14T06:32:43.912Z,40.78
2018-01-14T06:35:10.162Z,38.13
2018-01-14T06:37:37.361Z,37.60
2018-01-14T06:40:04.250Z,36.10
2018-01-14T06:42:30.937Z,38.45
2018-01-14T06:44:58.338Z,42.33
2018-01-14T06:47:25.601Z,45.17
2018-01-14T06:49:51.827Z,35.53
2018-01-14T06:52:18.231Z,40.12
2018-01-14T06:54:44.502Z,39.55
2018-01-14T06:57:10.783Z,35.67
2018-01-14T06:59:37.704Z,33.07
2018-01-14T07:02:03.996Z,38.10
2018-01-14T07:04:30.602Z,35.47
2018-01-14T07:06:57.571Z,35.60
2018-01-14T07:09:23.874Z,35.67
2018-01-14T07:11:50.836Z,33.95
2018-01-14T07:14:17.782Z,35.83
2018-01-14T07:16:45.104Z,35.83
2018-01-14T07:19:11.371Z,35.45
2018-01-14T07:21:37.632Z,38.28
2018-01-14T07:24:03.900Z,33.22
2018-01-14T07:26:30.138Z,33.97
2018-01-14T07:28:57.232Z,37.72
2018-01-14T07:31:23.464Z,32.20
2018-01-14T07:33:49.720Z,40.05
2018-01-14T07:36:17.341Z,33.15
2018-01-14T07:38:45.080Z,33.25
2018-01-14T07:41:12.122Z,37.95
2018-01-14T07:43:39.508Z,35.45
2018-01-14T07:46:05.735Z,32.00
2018-01-14T07:48:31.976Z,34.50
2018-01-14T07:50:58.405Z,37.97
2018-01-14T07:53:24.668Z,37.63
2018-01-14T07:55:50.905Z,33.25
2018-01-14T07:58:17.119Z,34.08
2018-01-14T08:00:43.413Z,32.22
2018-01-14T08:03:10.003Z,37.45
2018-01-14T08:05:36.278Z,34.78
2018-01-14T08:08:02.504Z,32.65
2018-01-14T08:10:29.737Z,42.03
2018-01-14T08:12:56.875Z,34.53
2018-01-14T08:15:23.093Z,29.37
2018-01-14T08:17:49.268Z,35.25
2018-01-14T08:20:16.316Z,32.42
2018-01-14T08:22:42.542Z,38.25
2018-01-14T08:25:09.502Z,32.40
2018-01-14T08:27:35.743Z,33.85
2018-01-14T08:30:02.485Z,31.27
2018-01-14T08:32:29.822Z,36.05
2018-01-14T08:34:56.577Z,38.60
2018-01-14T08:37:22.786Z,32.53
2018-01-14T08:39:49.011Z,33.92
2018-01-14T08:42:16.093Z,37.87
2018-01-14T08:44:42.326Z,35.17
2018-01-14T08:47:08.524Z,36.78
2018-01-14T08:49:34.728Z,30.50
2018-01-14T08:52:01.702Z,29.75
2018-01-14T08:54:27.913Z,31.42
2018-01-14T08:56:54.907Z,27.13
2018-01-14T09:09:06.236Z,25.10
2018-01-14T09:11:33.395Z,29.70
2018-01-14T09:14:00.266Z,31.20
2018-01-14T09:16:27.401Z,29.58
2018-01-14T09:18:53.638Z,29.30
2018-01-14T09:21:19.845Z,26.37
2018-01-14T09:23:46.077Z,27.48
2018-01-14T09:26:12.263Z,27.73
2018-01-14T09:28:39.267Z,25.00
2018-01-14T09:31:06.074Z,26.48
2018-01-14T09:33:32.340Z,26.50
2018-01-14T09:35:58.659Z,29.58
2018-01-14T09:38:24.922Z,26.93
2018-01-14T09:40:51.131Z,23.92
2018-01-14T09:43:17.412Z,26.87
2018-01-14T09:45:44.368Z,25.30
2018-01-14T09:48:10.609Z,24.17
2018-01-14T09:50:37.217Z,25.27
2018-01-14T09:53:03.642Z,24.57
2018-01-14T09:55:29.901Z,25.50
2018-01-14T09:57:56.113Z,32.07
2018-01-14T10:00:23.156Z,27.53
2018-01-14T10:02:50.919Z,25.73
2018-01-14T10:05:18.480Z,26.10
2018-01-14T10:07:44.751Z,32.43
2018-01-14T10:10:10.984Z,26.23
2018-01-14T10:12:37.210Z,25.60
2018-01-14T10:15:04.239Z,29.47
2018-01-14T10:17:30.501Z,26.27
2018-01-14T10:19:56.765Z,23.65
2018-01-14T10:22:23.030Z,23.00
2018-01-14T10:24:49.272Z,28.20
2018-01-14T10:27:16.527Z,21.63
2018-01-14T10:29:43.170Z,22.70
2018-01-14T10:32:10.354Z,24.13
2018-01-14T10:34:36.585Z,23.83
2018-01-14T10:37:02.818Z,27.17
2018-01-14T10:39:29.109Z,23.30
2018-01-14T10:41:56.254Z,26.27
2018-01-14T10:44:25.032Z,23.75
2018-01-14T10:46:53.327Z,29.12
2018-01-14T10:49:20.073Z,25.63
2018-01-14T10:51:46.310Z,23.23
2018-01-14T10:54:12.848Z,23.20
2018-01-14T10:56:39.155Z,30.60
2018-01-14T10:59:05.492Z,22.37
2018-01-14T11:01:31.697Z,32.53
2018-01-14T11:03:59.454Z,21.85
2018-01-14T11:06:26.391Z,22.67
2018-01-14T11:08:52.593Z,24.63
2018-01-14T11:11:18.814Z,22.23
2018-01-14T11:13:44.982Z,23.77
2018-01-14T11:16:11.985Z,27.70
2018-01-14T11:18:38.185Z,26.30
2018-01-14T11:21:04.377Z,24.73
2018-01-14T11:23:30.567Z,27.90
2018-01-14T11:25:56.818Z,23.33
2018-01-14T11:28:26.867Z,18.83
2018-01-14T11:30:53.904Z,22.73
2018-01-14T11:33:20.844Z,27.27
2018-01-14T11:35:47.054Z,21.20
2018-01-14T11:38:13.254Z,26.57
2018-01-14T11:40:39.479Z,21.70
2018-01-14T11:43:05.758Z,21.50
2018-01-14T11:45:37.400Z,21.07
2018-01-14T11:48:05.330Z,23.50
2018-01-14T11:50:33.754Z,24.10
2018-01-14T11:53:00.944Z,21.83
2018-01-14T11:55:27.190Z,25.00
2018-01-14T11:57:53.418Z,22.90
2018-01-14T12:00:19.733Z,26.07
2018-01-14T12:02:46.684Z,19.67
2018-01-14T12:05:13.662Z,22.40
2018-01-14T12:07:40.238Z,25.70
2018-01-14T12:10:08.360Z,23.33
2018-01-14T12:12:35.374Z,25.90
2018-01-14T12:15:02.335Z,17.87
2018-01-14T12:17:28.575Z,24.00
2018-01-14T12:19:54.847Z,20.30
2018-01-14T12:22:21.085Z,24.60
2018-01-14T12:24:48.454Z,24.17
2018-01-14T12:27:14.759Z,28.07
2018-01-14T12:29:40.988Z,20.53
2018-01-14T12:32:07.261Z,21.00
2018-01-14T12:34:39.664Z,22.60
2018-01-14T12:37:05.881Z,21.07
2018-01-14T12:39:32.092Z,19.43
2018-01-14T12:41:59.143Z,18.80
2018-01-14T12:44:27.553Z,21.93
2018-01-14T12:46:54.444Z,21.30
2018-01-14T12:49:20.956Z,25.93
2018-01-14T12:51:48.135Z,22.90
2018-01-14T12:54:15.197Z,21.13
2018-01-14T12:56:42.263Z,22.80
2018-01-14T12:59:10.144Z,20.17
2018-01-14T13:01:38.301Z,23.40
2018-01-14T13:04:05.786Z,23.43
2018-01-14T13:06:31.999Z,19.40
2018-01-14T13:08:58.351Z,16.90
2018-01-14T13:11:25.000Z,21.10
2018-01-14T13:13:52.095Z,19.57
2018-01-14T13:16:19.047Z,19.50
2018-01-14T13:18:46.922Z,23.23
2018-01-14T13:21:13.762Z,19.20
2018-01-14T13:23:41.892Z,25.03
2018-01-14T13:26:08.215Z,24.07
2018-01-14T13:38:24.432Z,21.37
2018-01-14T13:40:52.396Z,20.70
2018-01-14T13:43:19.872Z,21.40
2018-01-14T13:45:49.022Z,19.43
2018-01-14T13:48:16.912Z,21.37
2018-01-14T13:50:43.798Z,19.80
2018-01-14T13:53:10.116Z,22.10
2018-01-14T13:55:36.944Z,20.33
2018-01-14T13:58:04.733Z,18.07
2018-01-14T14:00:31.295Z,17.77
2018-01-14T14:02:59.503Z,19.30
2018-01-14T14:05:28.009Z,18.53
2018-01-14T14:07:55.081Z,22.73
2018-01-14T14:10:21.619Z,19.93
2018-01-14T14:12:49.358Z,20.97
2018-01-14T14:15:15.641Z,21.90
2018-01-14T14:17:43.546Z,22.27
2018-01-14T14:20:12.307Z,18.90
2018-01-14T14:22:38.601Z,18.70
2018-01-14T14:25:06.747Z,17.90
2018-01-14T14:27:32.988Z,22.07
2018-01-14T14:30:02.297Z,22.73
2018-01-14T14:32:29.481Z,20.20
2018-01-14T14:34:56.518Z,24.70
2018-01-14T14:37:23.330Z,21.10
2018-01-14T14:39:50.234Z,25.60
2018-01-14T14:42:16.560Z,20.83
2018-01-14T14:44:43.677Z,19.53
2018-01-14T14:47:09.995Z,20.50
2018-01-14T14:49:36.606Z,21.37
2018-01-14T14:52:04.735Z,20.07
2018-01-14T14:54:30.935Z,19.40
2018-01-14T14:56:59.006Z,20.50
2018-01-14T14:59:26.257Z,22.57
2018-01-14T15:01:53.377Z,18.93
2018-01-14T15:04:20.970Z,18.23
2018-01-14T15:06:48.424Z,17.77
2018-01-14T15:09:14.706Z,17.60
2018-01-14T15:11:40.927Z,22.00
2018-01-14T15:14:07.349Z,26.03
2018-01-14T15:16:34.673Z,21.33
2018-01-14T15:19:01.598Z,22.20
2018-01-14T15:21:30.506Z,22.80
2018-01-14T15:24:02.071Z,20.50
2018-01-14T15:26:31.098Z,21.40
2018-01-14T15:28:57.419Z,20.43
2018-01-14T15:31:25.721Z,23.73
2018-01-14T15:33:55.326Z,20.67
2018-01-14T15:36:22.155Z,20.33
2018-01-14T15:38:48.460Z,22.50
2018-01-14T15:41:14.660Z,17.10
2018-01-14T15:43:43.364Z,18.30
2018-01-14T15:46:12.431Z,17.17
2018-01-14T15:48:39.452Z,16.57
2018-01-14T15:51:07.032Z,20.87
2018-01-14T15:53:35.735Z,20.27
2018-01-14T15:56:04.098Z,18.20
2018-01-14T15:58:30.340Z,20.57
2018-01-14T16:00:57.646Z,23.17
2018-01-14T16:03:24.887Z,20.90
2018-01-14T16:05:51.865Z,19.27
2018-01-14T16:08:18.021Z,21.50
2018-01-14T16:10:45.038Z,19.50
2018-01-14T16:13:12.214Z,22.83
2018-01-14T16:15:39.199Z,19.87
2018-01-14T16:18:05.426Z,22.10
2018-01-14T16:20:31.603Z,23.40
2018-01-14T16:22:59.635Z,22.03
2018-01-14T16:25:25.866Z,21.50
2018-01-14T16:27:53.272Z,21.53
2018-01-14T16:30:22.640Z,20.67
2018-01-14T16:32:49.829Z,23.17
2018-01-14T16:35:19.129Z,17.90
2018-01-14T16:37:50.665Z,22.27
2018-01-14T16:40:16.866Z,20.60
2018-01-14T16:42:43.140Z,20.70
2018-01-14T16:45:09.384Z,21.43
2018-01-14T16:47:36.545Z,22.43
2018-01-14T16:50:05.005Z,23.60
2018-01-14T16:52:33.628Z,22.90
2018-01-14T16:55:01.670Z,27.47
2018-01-14T16:57:29.485Z,20.87
2018-01-14T16:59:56.464Z,21.60
2018-01-14T17:02:23.339Z,21.03
2018-01-14T17:04:50.317Z,22.43
2018-01-14T17:07:18.063Z,21.77
2018-01-14T17:09:45.147Z,20.70
2018-01-14T17:12:12.955Z,18.20
2018-01-14T17:14:41.741Z,23.10
2018-01-14T17:17:09.530Z,22.93
2018-01-14T17:19:35.710Z,22.47
2018-01-14T17:22:05.097Z,20.93
2018-01-14T17:24:31.665Z,27.00
2018-01-14T17:26:57.903Z,22.30
2018-01-14T17:29:25.725Z,24.33
2018-01-14T17:31:54.954Z,25.53
2018-01-14T17:34:21.997Z,26.27
2018-01-14T17:36:49.451Z,21.73
2018-01-14T17:39:15.649Z,25.07
2018-01-14T17:41:42.839Z,21.27
2018-01-14T17:44:09.043Z,21.13
2018-01-14T17:46:36.116Z,24.97
2018-01-14T17:49:02.451Z,21.37
2018-01-14T17:51:29.530Z,21.40
2018-01-14T17:53:56.755Z,23.50
2018-01-14T17:56:25.354Z,30.88
2018-01-14T17:58:52.393Z,27.03
2018-01-14T18:01:19.407Z,29.40
2018-01-14T18:13:36.679Z,23.70
2018-01-14T18:16:02.990Z,28.17
2018-01-14T18:18:31.127Z,24.03
2018-01-14T18:20:59.952Z,24.37
2018-01-14T18:23:26.145Z,25.03
2018-01-14T18:25:54.818Z,27.77
2018-01-14T18:28:22.792Z,27.10
2018-01-14T18:30:51.573Z,26.43
2018-01-14T18:33:18.782Z,27.15
2018-01-14T18:35:47.440Z,29.17
2018-01-14T18:38:14.034Z,26.33
2018-01-14T18:40:41.136Z,22.00
2018-01-14T18:43:09.134Z,24.70
2018-01-14T18:45:48.171Z,33.75
2018-01-14T18:48:15.001Z,27.92
2018-01-14T18:50:42.187Z,32.00
2018-01-14T18:53:09.439Z,24.70
2018-01-14T18:55:35.650Z,27.55
2018-01-14T18:58:03.965Z,24.57
2018-01-14T19:00:30.976Z,26.57
2018-01-14T19:02:57.805Z,24.00
2018-01-14T19:05:24.771Z,27.20
2018-01-14T19:07:52.677Z,23.40
2018-01-14T19:10:20.611Z,27.80
2018-01-14T19:12:46.838Z,27.52
2018-01-14T19:28:18.133Z,24.70
2018-01-14T19:30:45.227Z,27.83
2018-01-14T19:33:11.472Z,34.00
2018-01-14T19:35:38.320Z,25.80
2018-01-14T19:38:08.010Z,26.20
2018-01-14T19:40:34.280Z,28.58
2018-01-14T19:43:03.133Z,25.92
2018-01-14T19:45:29.791Z,27.80
2018-01-14T19:47:57.543Z,27.17
2018-01-14T19:50:25.684Z,28.75
2018-01-14T19:52:55.478Z,28.87
2018-01-14T19:55:21.681Z,25.27
2018-01-14T19:57:50.653Z,23.98
2018-01-14T20:00:19.939Z,25.67
2018-01-14T20:02:47.992Z,23.95
2018-01-14T20:05:14.959Z,28.42
2018-01-14T20:07:42.251Z,26.65
2018-01-14T20:13:03.243Z,27.98
2018-01-14T20:15:31.466Z,25.88
2018-01-14T20:17:58.417Z,26.67
2018-01-14T20:20:27.243Z,27.20
2018-01-14T20:22:54.829Z,33.22
2018-01-14T20:25:21.892Z,26.50
2018-01-14T20:27:49.081Z,22.35
2018-01-14T20:30:16.043Z,20.12
2018-01-14T20:32:43.336Z,28.45
2018-01-14T20:35:18.900Z,30.12
2018-01-14T20:38:18.829Z,22.58
2018-01-14T20:40:46.294Z,23.83
2018-01-14T20:43:13.326Z,28.52
2018-01-14T20:45:40.321Z,24.95
2018-01-14T20:48:06.562Z,22.27
2018-01-14T20:50:33.308Z,21.00
2018-01-14T20:53:00.773Z,22.27
2018-01-14T20:55:27.132Z,24.65
2018-01-14T20:57:56.902Z,23.25
2018-01-14T21:00:23.889Z,24.45
2018-01-14T21:02:51.031Z,20.70
2018-01-14T21:05:19.164Z,26.02
2018-01-14T21:07:46.491Z,25.05
2018-01-14T21:10:13.582Z,24.23
2018-01-14T21:12:41.857Z,26.17
2018-01-14T21:15:09.838Z,26.33
2018-01-14T21:17:36.085Z,23.38
2018-01-14T21:20:06.044Z,24.05
2018-01-14T21:22:32.335Z,27.05
2018-01-14T21:25:00.186Z,25.67
2018-01-14T21:37:18.494Z,25.02
2018-01-14T21:39:44.743Z,20.08
2018-01-14T21:42:11.730Z,24.60
2018-01-14T21:44:40.102Z,23.50
2018-01-14T21:47:07.710Z,23.67
2018-01-14T21:49:34.836Z,23.77
2018-01-14T21:52:02.054Z,26.70
2018-01-14T21:54:28.417Z,25.23
2018-01-14T21:56:56.586Z,29.12
2018-01-14T21:59:23.592Z,32.25
2018-01-14T22:01:50.797Z,26.75
2018-01-14T22:04:19.987Z,21.95
2018-01-14T22:06:48.460Z,26.02
2018-01-14T22:09:14.793Z,26.15
2018-01-14T22:11:41.800Z,28.62
2018-01-14T22:14:10.842Z,26.37
2018-01-14T22:16:38.092Z,24.50
2018-01-14T22:19:04.418Z,25.27
2018-01-14T22:21:31.411Z,27.00
2018-01-14T22:23:58.272Z,27.17
2018-01-14T22:26:25.267Z,24.45
2018-01-14T22:28:52.995Z,25.90
2018-01-14T22:31:20.704Z,33.30
2018-01-14T22:33:48.028Z,29.60
2018-01-14T22:36:15.290Z,24.40
2018-01-14T22:38:41.916Z,23.30
2018-01-14T22:41:08.960Z,26.20
2018-01-14T22:43:36.411Z,26.10
2018-01-14T22:46:04.333Z,25.30
2018-01-14T22:48:30.566Z,30.50
2018-01-14T22:50:57.611Z,24.73
2018-01-14T22:53:24.518Z,26.58
2018-01-14T22:55:52.736Z,26.83
2018-01-14T22:58:21.415Z,29.40
2018-01-14T23:00:48.543Z,26.87
2018-01-14T23:03:14.783Z,27.60
2018-01-14T23:05:40.972Z,25.60
2018-01-14T23:08:08.727Z,24.33
2018-01-14T23:10:35.083Z,25.92
2018-01-14T23:13:02.024Z,23.40
2018-01-14T23:15:30.682Z,25.33
2018-01-14T23:17:58.626Z,25.12
2018-01-14T23:20:26.083Z,26.87
2018-01-14T23:22:52.542Z,25.85
2018-01-14T23:25:20.474Z,26.60
2018-01-14T23:27:46.913Z,23.50
2018-01-14T23:30:13.910Z,20.90
2018-01-14T23:32:42.066Z,23.80
2018-01-14T23:35:13.252Z,24.80
2018-01-14T23:37:40.183Z,21.17
2018-01-14T23:40:08.178Z,19.35
2018-01-14T23:42:35.525Z,20.25
2018-01-14T23:45:02.607Z,24.10
2018-01-14T23:47:29.809Z,24.67
2018-01-14T23:49:56.720Z,20.90
2018-01-14T23:52:24.390Z,25.70
2018-01-14T23:54:52.344Z,24.00
2018-01-14T23:57:19.319Z,24.27
2018-01-14T23:59:47.304Z,23.05
